Airfield :
LOGIN :

Register | Disclaimer

   EN    FR    IT 

 










Legend :    VFR   Marginal VFR   IFR   Intensive IFR   Very Intensive IFR
Visi :
Ceiling :
>= 8 km
>= 3000ft
5 to 8 km
1000 to 3000 ft
1500m to 5 km
500 to 1000 ft
800 to 1500m
200 to 500 ft
< 800m
< 200 ft
Symbols :   Thunderstorms  Fog  Heavy snow  Heavy precipitations  Wind > 20 kt
SIGMETs :     Misc.  Thunderstorms  Icing  Turbulence  Mountain Waves  Volcanic Ashes







- Airport Elevation : 364 ft
- IATA code : FRA


EDDF - Frankfurt Int.

CURRENT METAR :
  • 291050Z 22009KT 180V250 CAVOK 13/M00 Q1017 NOSIG

EXPIRED METARs :
  • 291020Z 24007KT 200V320 9999 SCT048 11/M01 Q1018 NOSIG
  • 290950Z VRB09KT 9999 SCT044 11/00 Q1018 NOSIG
  • 290920Z 26007KT 220V320 9999 SCT039 11/00 Q1018 NOSIG
  • 290850Z VRB02KT 9999 FEW036 11/01 Q1018 NOSIG
  • 290820Z VRB03KT 9999 FEW032 SCT060 10/02 Q1018 NOSIG

TAF TAF EDDF
Valid from the 29 at 06:00 until the 30 at 12:00 UTC


290500Z 2906/3012 21004KT 9999 FEW045
BECMG 2911/2913 34005KT
BECMG 2916/2918 04005KT
No reported NOTAMs for that airfield.



MET'MAP, your aeronautical weather chart ! - Copyright ORBIFLY December 2007 - Disclaimer

ORBIFLY MET'MAP TEAM :

Programming & Development : Alexandra Zaïnal
Concept & Development : Baudouin d'Aumeries
Co-Development & Prog : Marc-Olivier Méhu
Technical & hardware support : Manuel Goepfert

Contact : metmap@orbifly.com




SOURCES & CREDITS :

   NOAA